Latest Weather Observations for Warburton

IDW60801

Issued at 5:32 pm WST Wednesday 27 May 2015 (issued every 30 minutes, with the page automatically refreshed every 10 minutes)

About weather observations | Map of weather stations | Latest weather observations for WA | Other Formats
Station Details ID: 013011 Name: WARBURTON AIRFIELD Lat: -26.13 Lon: 126.58 Height: 459.0 m
Data from the previous 72 hours. | See also: Recent months at Warburton
Date/Time
WST
Temp
°C
App
Temp
°C
Dew
Point
Rel
Hum
%
Delta-T
°C
Wind Press
QNH
hPa
Press
MSL
hPa
Rain
since 9 am
mm
Dir
 
Spd
km/h
Gust
km/h
Spd
kts
Gust
kts
27/05:30pm 19.1 18.8 15.4 79 2.2 S 11 15 6 8 1019.3 - 0.0
27/05:00pm 19.6 19.4 14.8 74 2.9 SSE 9 13 5 7 1018.9 - 0.0
27/04:30pm 20.2 20.0 14.6 70 3.3 S 9 15 5 8 1019.0 - 0.0
27/04:00pm 20.5 19.0 14.2 67 3.7 SSE 15 19 8 10 1018.5 - 0.0
27/03:30pm 21.0 19.9 14.2 65 4.0 SSE 13 17 7 9 1018.5 - 0.0
27/03:00pm 21.3 19.9 13.5 61 4.6 SE 13 19 7 10 1018.4 1017.2 0.0
27/02:30pm 21.7 20.0 13.6 60 4.8 SSE 15 19 8 10 1018.4 - 0.0
27/02:00pm 21.8 20.5 13.7 60 4.8 SSE 13 17 7 9 1018.3 - 0.0
27/01:30pm 21.9 21.1 14.0 61 4.7 SSE 11 19 6 10 1018.3 - 0.0
27/01:00pm 22.5 20.7 12.2 52 6.0 E 13 17 7 9 1018.3 - 0.0
27/12:30pm 21.9 21.0 12.5 55 5.4 E 9 15 5 8 1019.0 - 0.0
27/12:00pm 21.6 20.7 13.8 61 4.6 E 11 17 6 9 1019.7 1018.5 0.0
27/11:30am 20.8 19.4 13.5 63 4.3 E 13 19 7 10 1020.1 - 0.0
27/11:00am 20.1 18.3 13.3 65 4.0 E 15 20 8 11 1020.5 - 0.0
27/10:30am 19.1 17.7 14.4 74 2.8 ESE 15 20 8 11 1021.0 - 0.0
27/10:00am 19.1 17.3 14.4 74 2.8 ESE 17 26 9 14 1021.7 - 0.0
27/09:30am 18.2 16.9 14.7 80 2.1 ESE 15 20 8 11 1022.3 - 0.0
27/09:00am 17.7 16.5 15.0 84 1.6 E 15 20 8 11 1022.6 1021.5 2.2
27/08:30am 17.0 15.3 14.8 87 1.3 E 17 20 9 11 1022.6 - 2.2
27/08:00am 16.7 15.5 15.1 90 0.9 E 15 20 8 11 1022.1 - 2.2
27/07:30am 16.2 16.4 15.7 97 0.3 E 9 13 5 7 1022.2 - 2.2
27/07:00am 15.2 15.1 15.0 99 0.1 E 9 11 5 6 1022.0 - 2.2
27/06:30am 14.3 14.5 14.1 99 0.1 ESE 6 9 3 5 1021.8 - 2.2
27/06:00am 14.2 15.1 14.0 99 0.1 E 2 9 1 5 1021.8 1020.6 2.0
27/05:30am 14.2 14.3 14.0 99 0.1 ESE 6 7 3 4 1021.6 - 2.0
27/05:00am 14.7 14.8 14.5 99 0.1 E 7 9 4 5 1021.5 - 2.0
27/04:30am 14.7 14.8 14.5 99 0.1 E 7 11 4 6 1021.2 - 2.0
27/04:00am 14.9 16.4 14.7 99 0.1 CALM 0 0 0 0 1021.2 - 2.0
27/03:30am 15.0 14.8 14.8 99 0.1 E 9 11 5 6 1021.1 - 2.0
27/03:00am 15.0 14.8 14.8 99 0.1 ESE 9 11 5 6 1021.2 1020.1 2.0
27/02:30am 15.1 15.0 14.9 99 0.1 ESE 9 13 5 7 1021.5 - 2.0
27/02:00am 15.1 14.6 14.9 99 0.1 E 11 17 6 9 1021.5 - 2.0
27/01:30am 15.0 14.5 15.0 100 0.0 ESE 11 15 6 8 1021.9 - 2.0
27/01:00am 14.9 15.2 14.9 100 0.0 SSE 7 9 4 5 1022.4 - 2.0
27/12:30am 14.9 15.2 14.9 100 0.0 ESE 7 9 4 5 1022.5 - 2.0
27/12:00am 14.9 15.7 14.9 100 0.0 SSE 4 9 2 5 1022.8 1021.7 2.0
 
Date/Time
WST
Temp
°C
App
Temp
°C
Dew
Point
Rel
Hum
%
Delta-T
°C
Wind Press
QNH
hPa
Press
MSL
hPa
Rain
since 9 am
mm
Dir
 
Spd
km/h
Gust
km/h
Spd
kts
Gust
kts
26/11:30pm 14.9 15.4 14.9 100 0.0 SE 6 7 3 4 1022.7 - 2.0
26/11:00pm 15.0 15.5 15.0 100 0.0 NNE 6 7 3 4 1023.4 - 2.0
26/10:30pm 15.1 15.1 15.1 100 0.0 ESE 9 13 5 7 1023.6 - 1.8
26/10:00pm 15.1 15.4 14.9 99 0.1 SSE 7 9 4 5 1024.4 - 1.4
26/09:30pm 15.4 16.3 15.2 99 0.1 W 4 6 2 3 1024.8 - 1.0
26/09:00pm 15.4 16.0 15.2 99 0.1 SSW 6 7 3 4 1024.2 1023.0 1.0
26/08:30pm 15.5 15.9 15.2 98 0.2 SE 7 11 4 6 1023.9 - 1.0
26/08:00pm 15.6 15.2 15.3 98 0.2 S 11 13 6 7 1024.1 - 1.0
26/07:30pm 15.7 15.4 15.4 98 0.2 S 11 13 6 7 1024.1 - 0.8
26/07:00pm 15.6 15.7 15.4 99 0.1 S 9 13 5 7 1024.4 - 0.8
26/06:30pm 15.7 15.4 15.5 99 0.1 S 11 13 6 7 1023.9 - 0.8
26/06:00pm 15.8 15.9 15.6 99 0.1 S 9 13 5 7 1023.5 1022.4 0.8
26/05:30pm 15.8 16.3 15.6 99 0.1 S 7 11 4 6 1023.4 - 0.8
26/05:00pm 16.0 16.2 15.7 98 0.2 SSE 9 11 5 6 1023.1 - 0.6
26/04:30pm 16.3 16.2 16.0 98 0.2 S 11 13 6 7 1023.0 - 0.6
26/04:00pm 16.3 15.8 16.0 98 0.2 S 13 19 7 10 1022.9 - 0.4
26/03:30pm 17.3 16.7 15.6 90 1.0 SSW 13 15 7 8 1023.3 - 0.2
26/03:00pm 18.2 17.9 15.5 84 1.6 S 11 15 6 8 1022.6 1021.5 0.2
26/02:30pm 18.5 17.6 13.8 74 2.7 S 11 13 6 7 1022.4 - 0.2
26/02:00pm 18.4 17.7 13.3 72 2.9 ESE 9 13 5 7 1022.4 - 0.2
26/01:30pm 18.2 17.5 13.3 73 2.8 SSE 9 11 5 6 1022.2 - 0.2
26/01:00pm 17.9 17.6 13.4 75 2.6 SSE 7 9 4 5 1022.8 - 0.2
26/12:30pm 17.9 17.5 14.2 79 2.2 S 9 13 5 7 1022.9 - 0.2
26/12:00pm 17.2 16.4 13.9 81 1.9 SSW 11 13 6 7 1023.5 1022.4 0.0
26/11:30am 17.9 16.9 13.4 75 2.6 SW 11 15 6 8 1024.1 - 0.0
26/11:00am 18.9 17.9 11.0 60 4.4 W 7 9 4 5 1024.6 - 0.0
26/10:30am 19.1 18.9 10.4 57 4.8 NNE 2 6 1 3 1024.6 - 0.0
26/10:00am 18.9 17.2 9.9 56 4.9 NNE 9 15 5 8 1024.5 - 0.0
26/09:30am 18.9 17.4 10.7 59 4.5 NNE 9 13 5 7 1024.8 - 0.0
26/09:00am 18.3 17.8 12.7 70 3.2 ENE 7 11 4 6 1024.9 1023.8 1.2
26/08:30am 16.5 17.8 14.2 86 1.3 CALM 0 7 0 4 1024.8 - 1.2
26/08:00am 15.3 16.2 15.0 98 0.2 S 4 6 2 3 1024.9 - 1.2
26/07:30am 14.7 15.0 14.5 99 0.1 SW 6 7 3 4 1024.8 - 1.2
26/07:00am 14.4 14.6 14.2 99 0.1 SSE 6 7 3 4 1024.7 - 1.2
26/06:30am 13.8 14.2 13.6 99 0.1 NNE 4 7 2 4 1024.4 - 1.2
26/06:00am 13.9 15.1 13.7 99 0.1 CALM 0 0 0 0 1024.2 1023.0 1.2
26/05:30am 14.0 15.2 13.8 99 0.1 CALM 0 0 0 0 1024.2 - 1.0
26/05:00am 14.2 15.4 13.9 98 0.2 CALM 0 0 0 0 1023.9 - 1.0
26/04:30am 14.3 15.6 14.0 98 0.2 CALM 0 0 0 0 1023.8 - 1.0
26/04:00am 14.2 15.4 13.9 98 0.2 CALM 0 0 0 0 1023.4 - 1.0
26/03:30am 14.4 15.3 14.1 98 0.2 NE 2 7 1 4 1023.4 - 1.0
26/03:00am 14.5 13.4 14.2 98 0.2 NNE 13 20 7 11 1023.4 1022.3 1.0
26/02:30am 14.5 14.5 14.2 98 0.2 ENE 7 11 4 6 1023.1 - 1.0
26/02:00am 14.3 13.9 14.0 98 0.2 ENE 9 13 5 7 1023.1 - 1.0
26/01:30am 14.0 13.9 13.8 99 0.1 ENE 7 11 4 6 1023.3 - 1.0
26/01:00am 14.0 13.5 13.8 99 0.1 NE 9 11 5 6 1023.8 - 0.8
26/12:30am 14.1 15.3 13.9 99 0.1 CALM 0 0 0 0 1024.2 - 0.8
26/12:00am 14.3 15.6 14.1 99 0.1 CALM 0 0 0 0 1024.2 1023.0 0.2
 
Date/Time
WST
Temp
°C
App
Temp
°C
Dew
Point
Rel
Hum
%
Delta-T
°C
Wind Press
QNH
hPa
Press
MSL
hPa
Rain
since 9 am
mm
Dir
 
Spd
km/h
Gust
km/h
Spd
kts
Gust
kts
25/11:30pm 14.2 15.5 14.0 99 0.1 CALM 0 0 0 0 1024.3 - 0.2
25/11:00pm 14.3 15.6 14.0 98 0.2 CALM 0 6 0 3 1024.4 - 0.2
25/10:30pm 14.5 15.1 14.2 98 0.2 N 4 7 2 4 1024.8 - 0.2
25/10:00pm 14.7 15.0 14.4 98 0.2 N 6 9 3 5 1024.8 - 0.0
25/09:30pm 14.7 16.1 14.4 98 0.2 CALM 0 0 0 0 1024.5 - 0.0
25/09:00pm 14.7 14.8 14.4 98 0.2 NE 7 7 4 4 1024.6 1023.5 0.0
25/08:30pm 14.7 14.8 14.4 98 0.2 ESE 7 9 4 5 1024.5 - 0.0
25/08:00pm 14.7 15.7 14.4 98 0.2 SE 2 7 1 4 1024.7 - 0.0
25/07:30pm 14.6 14.6 14.3 98 0.2 E 7 9 4 5 1024.7 - 0.0
25/07:00pm 14.4 14.3 13.9 97 0.3 NNE 7 7 4 4 1024.8 - 0.0
25/06:30pm 15.0 14.2 13.0 88 1.1 N 9 11 5 6 1024.9 - 0.0
25/06:00pm 15.0 13.5 13.0 88 1.1 N 13 15 7 8 1024.5 1023.3 0.0
25/05:30pm 15.1 14.4 13.1 88 1.1 NNW 9 13 5 7 1024.2 - 0.0
25/05:00pm 15.3 14.1 12.8 85 1.4 NNW 11 13 6 7 1023.6 - 0.0
25/04:30pm 15.6 14.4 12.7 83 1.6 NW 11 13 6 7 1023.8 - 0.0
25/04:00pm 15.8 14.6 12.7 82 1.7 NNW 11 13 6 7 1023.1 - 0.0
25/03:30pm 15.8 14.1 12.5 81 1.9 NNW 13 17 7 9 1022.9 - 0.0
25/03:00pm 15.8 13.8 12.7 82 1.7 NW 15 20 8 11 1023.0 1021.9 0.0
25/02:30pm 15.8 13.7 12.5 81 1.9 NW 15 19 8 10 1022.8 - 0.0
25/02:00pm 15.9 14.6 12.5 80 1.9 NW 11 13 6 7 1022.8 - 0.0
25/01:30pm 15.5 14.3 11.7 78 2.1 N 9 13 5 7 1022.9 - 0.0
25/01:00pm 15.4 14.3 11.8 79 2.0 N 9 13 5 7 1023.0 - 0.0
25/12:30pm 15.1 14.2 11.3 78 2.1 NNW 7 11 4 6 1023.3 - 0.0
25/12:00pm 15.0 14.0 11.0 77 2.2 NE 7 9 4 5 1023.1 1022.0 0.0
25/11:30am 14.7 13.4 11.3 80 1.9 NE 9 13 5 7 1023.8 - 0.0
25/11:00am 14.1 12.6 10.5 79 1.9 N 9 20 5 11 1024.4 - 0.0
25/10:30am 14.4 11.5 11.0 80 1.8 N 17 24 9 13 1024.9 - 0.0
25/10:00am 14.5 12.0 10.9 79 1.9 N 15 20 8 11 1025.2 - 0.0
25/09:30am 14.4 12.5 10.4 77 2.1 N 11 15 6 8 1025.9 - 0.0
25/09:00am 14.5 14.5 9.7 73 2.5 CALM 0 0 0 0 1025.9 1024.8 4.4
25/08:30am 14.2 14.4 10.6 79 1.9 CALM 0 7 0 4 1025.0 - 4.4
25/08:00am 13.8 11.2 10.8 82 1.6 NE 15 22 8 12 1023.6 - 4.4
25/07:30am 13.6 11.8 10.8 83 1.5 NE 11 17 6 9 1023.2 - 4.4
25/07:00am 13.9 12.6 10.1 78 2.0 NNW 7 15 4 8 1023.8 - 4.4
25/06:30am 13.5 11.0 10.9 84 1.4 NE 15 20 8 11 1022.5 - 4.4
25/06:00am 13.8 13.0 11.0 83 1.5 W 6 7 3 4 1024.2 1023.0 4.4
25/05:30am 13.8 11.9 10.6 81 1.7 NNE 11 15 6 8 1023.3 - 4.4
25/05:00am 14.0 12.6 11.0 82 1.6 NNE 9 13 5 7 1023.3 - 4.4
25/04:30am 14.1 13.0 10.7 80 1.8 NE 7 11 4 6 1022.9 - 4.4
25/04:00am 13.8 13.0 11.8 88 1.1 NNE 7 11 4 6 1022.9 - 4.4
25/03:30am 13.4 12.5 12.6 95 0.4 NE 9 13 5 7 1022.6 - 4.2
25/03:00am 13.4 14.2 12.5 94 0.5 CALM 0 0 0 0 1023.0 1021.9 4.2
25/02:30am 13.3 14.1 12.4 94 0.5 CALM 0 0 0 0 1023.1 - 4.2
25/02:00am 13.3 13.5 12.0 92 0.7 NE 2 7 1 4 1023.4 - 4.2
25/01:30am 13.2 12.5 12.1 93 0.6 NE 7 11 4 6 1023.1 - 4.2
25/01:00am 13.2 12.7 12.1 93 0.6 NE 6 7 3 4 1023.3 - 4.2
25/12:30am 13.2 12.8 12.3 94 0.5 NE 6 9 3 5 1023.6 - 4.2
25/12:00am 13.1 12.6 12.2 94 0.5 E 6 9 3 5 1023.6 1022.5 4.2
 
Date/Time
WST
Temp
°C
App
Temp
°C
Dew
Point
Rel
Hum
%
Delta-T
°C
Wind Press
QNH
hPa
Press
MSL
hPa
Rain
since 9 am
mm
Dir
 
Spd
km/h
Gust
km/h
Spd
kts
Gust
kts
24/11:30pm 13.2 13.3 12.6 96 0.3 ESE 4 9 2 5 1023.8 - 4.2
24/11:00pm 13.3 13.0 12.8 97 0.3 SE 6 7 3 4 1023.9 - 4.2
24/10:30pm 13.3 13.1 13.0 98 0.2 ESE 6 7 3 4 1024.0 - 4.2
24/10:00pm 13.2 12.0 12.9 98 0.2 E 11 13 6 7 1023.9 - 4.2
24/09:30pm 13.3 14.2 13.0 98 0.2 CALM 0 0 0 0 1024.1 - 4.2
24/09:00pm 13.3 13.7 12.5 95 0.4 SW 2 9 1 5 1024.3 1023.1 4.2
24/08:30pm 13.2 12.5 12.1 93 0.6 E 7 13 4 7 1023.6 - 4.2
24/08:00pm 13.7 12.9 11.6 87 1.1 E 7 9 4 5 1023.5 - 4.2
24/07:30pm 13.7 11.7 11.4 86 1.3 ENE 13 19 7 10 1022.6 - 4.2
24/07:00pm 13.8 12.8 11.1 84 1.5 SSW 7 11 4 6 1023.6 - 4.2
24/06:30pm 14.1 13.1 10.9 81 1.7 NNE 7 15 4 8 1023.3 - 4.2
24/06:00pm 14.0 13.2 11.0 82 1.6 NNE 6 13 3 7 1023.0 1021.9 4.2

Other Formats:

Comma delimited format used in spreadsheet applications
http://www.bom.gov.au/fwo/IDW60801/IDW60801.94457.axf

JavaScript Object Notation format (JSON) in row-major order
http://www.bom.gov.au/fwo/IDW60801/IDW60801.94457.json